LSZS/SMV METAR and TAF weather

Enter ICAO airport designator
Station Type Date Time Source
LSZS METAR 2020/07/07 09:50 UTC NOAA

LSZS 070950Z VRB02KT CAVOK 14/M02 Q1021 RMK I TL170


Station Type Date Time Source
LSZS Decoded METAR 2020/07/07 09:50 UTC NOAA

Station name not available
Jul 07, 2020 - 05:50 AM EDT / 2020.07.07 0950 UTC
Wind: Variable at 2 MPH (2 KT):0
Visibility: greater than 7 mile(s):0
Temperature: 57 F (14 C)
Dew Point: 28 F (-2 C)
Relative Humidity: 33%
Pressure (altimeter): 30.15 in. Hg (1021 hPa)
ob: LSZS 070950Z VRB02KT CAVOK 14/M02 Q1021 RMK I TL170
cycle: 10

Station Type Date Time Source
LSZS TAF 2014/12/22 20:03 UTC NOAA

TAF
AMD LSZS 222054Z 2220/2224 CNL

Example: see airport list